Time;durP1;ratioP1;P1;durP2;ratioP2;P2;SDS_P1;SDS_P2;PMS_P1;PMS_P2;Temp;Humidity;BMP_temperature;BMP_pressure;BME280_temperature;BME280_humidity;BME280_pressure;Samples;Min_cycle;Max_cycle;Signal;HPM_P1;HPM_P2
2022/06/26 00:01:05;;;;;;;9.75;5.03;;;;;;;26.38;92.71;100666.41;1681857;85;21062;-70
2022/06/26 00:03:32;;;;;;;13.35;5.00;;;;;;;26.68;91.80;100669.33;1681919;85;21090;-70
2022/06/26 00:06:00;;;;;;;8.08;5.03;;;;;;;26.71;91.56;100666.88;1681946;85;21044;-70
2022/06/26 00:08:27;;;;;;;10.23;5.08;;;;;;;26.77;91.10;100672.30;1681920;85;21011;-70
2022/06/26 00:10:56;;;;;;;9.63;5.53;;;;;;;26.73;91.16;100667.02;1681685;85;21130;-70
2022/06/26 00:13:23;;;;;;;7.60;6.15;;;;;;;26.42;93.11;100676.14;1682089;85;21074;-70
2022/06/26 00:15:51;;;;;;;12.47;6.95;;;;;;;26.24;93.57;100683.39;1681995;85;21138;-70
2022/06/26 00:18:19;;;;;;;9.45;5.90;;;;;;;26.07;92.49;100682.08;1681802;85;21075;-70
2022/06/26 00:20:46;;;;;;;10.63;5.62;;;;;;;26.23;90.67;100685.72;1682176;85;21493;-70
2022/06/26 00:23:13;;;;;;;11.03;6.17;;;;;;;26.47;89.30;100684.37;1681727;85;21579;-69
2022/06/26 00:25:41;;;;;;;10.48;5.92;;;;;;;26.47;87.96;100690.97;1682005;85;21090;-69
2022/06/26 00:28:09;;;;;;;9.95;6.03;;;;;;;26.46;87.45;100691.98;1681822;85;21094;-70
2022/06/26 00:30:37;;;;;;;11.68;6.85;;;;;;;26.60;87.34;100695.76;1681998;85;21050;-70
2022/06/26 00:33:05;;;;;;;10.08;7.50;;;;;;;26.52;88.02;100692.62;1681880;85;21051;-70
2022/06/26 00:35:32;;;;;;;13.88;7.85;;;;;;;26.33;88.47;100694.28;1681820;85;21015;-70
2022/06/26 00:38:00;;;;;;;10.58;7.60;;;;;;;26.24;90.78;100693.48;1682051;85;21067;-70
2022/06/26 00:40:28;;;;;;;13.62;7.70;;;;;;;25.91;91.23;100689.98;1681784;85;21047;-70
2022/06/26 00:42:55;;;;;;;12.65;8.58;;;;;;;25.99;90.66;100689.98;1682227;84;21511;-70
2022/06/26 00:45:22;;;;;;;15.78;10.98;;;;;;;26.28;90.80;100688.70;1681955;85;21610;-70
2022/06/26 00:47:51;;;;;;;12.00;9.93;;;;;;;25.97;92.18;100688.02;1682202;85;21051;-69
2022/06/26 00:50:18;;;;;;;15.28;10.88;;;;;;;26.11;91.35;100692.62;1681867;85;21039;-69
2022/06/26 00:52:47;;;;;;;12.80;10.30;;;;;;;26.29;90.42;100688.52;1681690;85;21130;-70
2022/06/26 00:55:15;;;;;;;12.13;8.98;;;;;;;26.22;91.04;100685.38;1681822;84;21050;-70
2022/06/26 00:57:42;;;;;;;16.42;11.18;;;;;;;26.15;91.83;100687.86;1682161;85;21036;-70
2022/06/26 01:00:12;;;;;;;14.58;11.10;;;;;;;26.20;91.75;100686.88;1682160;85;21122;-70
2022/06/26 01:02:39;;;;;;;12.13;10.03;;;;;;;26.30;91.36;100678.80;1682102;85;21034;-69
2022/06/26 01:05:10;;;;;;;14.47;9.65;;;;;;;26.42;89.32;100676.14;1681831;85;21109;-69
2022/06/26 01:07:38;;;;;;;16.73;10.13;;;;;;;26.38;88.86;100678.29;1681981;85;22162;-70
2022/06/26 01:10:06;;;;;;;12.00;8.90;;;;;;;26.34;89.05;100675.66;1660675;85;21063;-70
2022/06/26 01:12:35;;;;;;;13.53;9.00;;;;;;;26.30;89.51;100677.48;1661108;85;21492;-69
2022/06/26 01:15:08;;;;;;;12.88;8.45;;;;;;;26.28;89.66;100673.69;1681907;85;21047;-70
2022/06/26 01:17:36;;;;;;;10.68;7.67;;;;;;;26.30;89.79;100674.84;1682373;85;21034;-69
2022/06/26 01:20:07;;;;;;;10.18;8.20;;;;;;;26.26;88.66;100680.13;1681930;85;21110;-69
2022/06/26 01:22:34;;;;;;;9.40;7.10;;;;;;;26.26;89.07;100684.90;1682290;85;20980;-70
2022/06/26 01:25:02;;;;;;;9.90;7.55;;;;;;;26.34;88.35;100679.61;1681869;85;21015;-70
2022/06/26 01:27:31;;;;;;;8.95;6.92;;;;;;;26.15;88.80;100683.90;1682075;85;21531;-69
2022/06/26 01:29:58;;;;;;;10.50;6.65;;;;;;;26.43;87.75;100687.02;1681704;85;21051;-70
2022/06/26 01:32:26;;;;;;;10.90;6.60;;;;;;;26.36;88.63;100686.87;1681792;85;21012;-70
2022/06/26 01:34:53;;;;;;;10.38;6.35;;;;;;;26.43;87.19;100684.88;1682116;84;21054;-68
2022/06/26 01:37:21;;;;;;;10.03;6.50;;;;;;;26.51;87.03;100687.01;1681828;85;21012;-68
2022/06/26 01:39:49;;;;;;;12.10;6.90;;;;;;;26.56;86.55;100689.98;1661131;85;21541;-67
2022/06/26 01:42:16;;;;;;;10.32;7.17;;;;;;;26.56;86.57;100693.94;1682022;85;21051;-68
2022/06/26 01:44:43;;;;;;;9.70;7.70;;;;;;;26.68;86.11;100693.60;1682117;85;20976;-68
2022/06/26 01:47:14;;;;;;;10.15;6.92;;;;;;;26.76;85.69;100687.83;1681882;85;21095;-67
2022/06/26 01:49:41;;;;;;;11.75;7.10;;;;;;;26.67;86.14;100682.23;1681511;85;21076;-68
2022/06/26 01:52:09;;;;;;;8.75;6.95;;;;;;;26.64;86.22;100683.87;1681557;85;21047;-68
2022/06/26 01:54:36;;;;;;;9.28;7.00;;;;;;;26.70;87.00;100695.11;1682012;85;21113;-68
2022/06/26 01:57:04;;;;;;;11.93;7.05;;;;;;;26.82;87.98;100695.55;1682326;85;21019;-68
2022/06/26 01:59:32;;;;;;;11.53;7.10;;;;;;;26.85;87.43;100699.69;1682237;85;21070;-68
2022/06/26 02:01:59;;;;;;;11.48;7.12;;;;;;;26.84;85.71;100698.02;1682231;85;21171;-67
2022/06/26 02:04:28;;;;;;;11.65;6.62;;;;;;;26.63;86.77;100704.68;1681913;85;21019;-68
2022/06/26 02:06:56;;;;;;;11.05;6.47;;;;;;;26.58;87.64;100703.88;1681951;85;21055;-68
2022/06/26 02:15:01;;;;;;;8.58;5.80;;;;;;;26.70;87.08;100706.14;1682098;85;21198;-68
2022/06/26 02:17:28;;;;;;;9.45;6.22;;;;;;;26.65;87.43;100700.55;1681972;85;21043;-67
2022/06/26 02:19:56;;;;;;;9.98;6.00;;;;;;;26.86;86.53;100703.45;1681953;85;21051;-68
2022/06/26 02:22:23;;;;;;;7.20;5.47;;;;;;;27.01;85.28;100710.67;1682167;85;21571;-68
2022/06/26 02:24:50;;;;;;;8.58;5.42;;;;;;;26.72;85.29;100718.21;1682097;85;21082;-67
2022/06/26 02:27:17;;;;;;;6.72;4.67;;;;;;;26.65;86.87;100715.89;1682039;85;21095;-68
2022/06/26 02:29:45;;;;;;;5.12;4.15;;;;;;;26.64;86.73;100708.14;1681939;85;21082;-67
2022/06/26 02:32:12;;;;;;;8.40;4.30;;;;;;;26.65;85.54;100703.20;1681871;85;21059;-68
2022/06/26 02:34:39;;;;;;;9.40;4.22;;;;;;;26.90;86.17;100706.09;1682043;85;21039;-68
2022/06/26 02:37:08;;;;;;;7.67;4.28;;;;;;;26.95;85.57;100706.42;1681913;84;21083;-68
2022/06/26 02:39:36;;;;;;;7.90;4.53;;;;;;;27.00;86.18;100705.90;1681915;84;21500;-69
2022/06/26 02:42:04;;;;;;;6.15;5.17;;;;;;;27.10;87.20;100714.45;1682064;85;21047;-69
2022/06/26 02:44:31;;;;;;;7.03;5.15;;;;;;;27.08;87.37;100709.83;1682188;84;21078;-69
2022/06/26 02:46:59;;;;;;;8.58;5.08;;;;;;;27.13;88.03;100710.16;1682195;84;21071;-69
2022/06/26 02:49:26;;;;;;;6.67;5.55;;;;;;;27.07;87.71;100711.31;1682105;85;21046;-69
2022/06/26 02:51:53;;;;;;;9.23;5.05;;;;;;;27.03;88.65;100719.26;1682311;85;21558;-69
2022/06/26 02:54:21;;;;;;;9.18;5.35;;;;;;;27.27;87.62;100713.94;1682035;85;21083;-69
2022/06/26 02:56:48;;;;;;;11.80;5.65;;;;;;;27.23;86.69;100723.20;1682217;85;21087;-69
2022/06/26 02:59:16;;;;;;;7.33;4.80;;;;;;;27.30;86.75;100720.19;1682014;85;21094;-69
2022/06/26 03:01:43;;;;;;;8.70;5.50;;;;;;;27.29;85.07;100725.16;1682090;85;21050;-69
2022/06/26 03:04:21;;;;;;;9.45;6.20;;;;;;;27.42;86.13;100729.07;1669910;85;21508;-69
2022/06/26 03:06:48;;;;;;;6.65;5.33;;;;;;;27.43;86.29;100726.23;1682007;85;21079;-69
2022/06/26 03:09:16;;;;;;;6.28;4.90;;;;;;;27.39;85.19;100732.86;1682137;85;21043;-69
2022/06/26 03:11:44;;;;;;;8.78;5.03;;;;;;;27.46;86.23;100733.02;1682033;85;21047;-69
2022/06/26 03:14:11;;;;;;;8.23;5.33;;;;;;;27.68;83.10;100738.03;1682253;85;21066;-69
2022/06/26 03:16:38;;;;;;;9.38;5.22;;;;;;;27.65;83.92;100740.50;1681898;84;21047;-69
2022/06/26 03:19:05;;;;;;;8.63;5.70;;;;;;;27.62;84.97;100736.89;1682094;85;21055;-69
2022/06/26 03:21:35;;;;;;;9.65;5.87;;;;;;;27.72;84.94;100736.68;1681731;85;21448;-69
2022/06/26 03:24:03;;;;;;;6.20;5.10;;;;;;;27.72;85.30;100740.14;1682087;85;21107;-69
2022/06/26 03:26:35;;;;;;;6.22;5.22;;;;;;;27.65;84.87;100735.20;1682189;85;21063;-69
2022/06/26 03:46:03;;;;;;;9.23;6.50;;;;;;;33.06;65.07;100733.94;1807464;79;21527;-68
2022/06/26 03:48:31;;;;;;;9.40;7.20;;;;;;;31.21;65.56;100728.27;1806654;78;21064;-68
2022/06/26 03:50:58;;;;;;;10.58;6.40;;;;;;;28.20;76.55;100732.56;1745486;82;21032;-68
2022/06/26 03:53:26;;;;;;;10.03;6.42;;;;;;;28.82;80.22;100741.63;1723788;82;21562;-68
2022/06/26 03:55:54;;;;;;;11.48;6.17;;;;;;;28.84;78.17;100742.78;1781548;79;21511;-68
2022/06/26 03:58:23;;;;;;;8.05;5.78;;;;;;;28.43;86.20;100737.82;1798747;78;21538;-68
2022/06/26 04:00:53;;;;;;;9.90;5.55;;;;;;;28.61;84.93;100738.37;1782259;79;21055;-68
2022/06/26 04:03:21;;;;;;;7.28;5.20;;;;;;;28.63;80.24;100738.17;1810199;78;21070;-68
2022/06/26 04:05:48;;;;;;;8.13;5.40;;;;;;;28.45;81.50;100744.61;1729725;82;20997;-68
2022/06/26 04:08:16;;;;;;;8.60;6.10;;;;;;;28.85;79.76;100745.22;1807901;79;21513;-68
2022/06/26 04:10:45;;;;;;;9.60;5.70;;;;;;;31.96;70.30;100744.27;1790877;78;21083;-69
2022/06/26 04:13:29;;;;;;;10.03;5.08;;;;;;;29.70;73.08;100734.59;1725259;82;21169;-69
2022/06/26 04:15:58;;;;;;;7.65;5.55;;;;;;;30.86;73.73;100728.24;1775377;80;21024;-69
2022/06/26 04:18:26;;;;;;;8.60;5.78;;;;;;;29.92;72.31;100737.30;1773077;79;20996;-69
2022/06/26 04:20:54;;;;;;;5.62;4.65;;;;;;;30.20;70.71;100747.98;1811587;78;21586;-69
2022/06/26 04:23:22;;;;;;;7.10;4.65;;;;;;;30.24;68.63;100737.29;1794022;78;20995;-69
2022/06/26 04:25:51;;;;;;;5.87;4.40;;;;;;;29.49;70.86;100733.25;1724917;82;21554;-69
2022/06/26 04:28:19;;;;;;;6.42;4.62;;;;;;;28.98;71.90;100734.52;1800819;79;21031;-69
2022/06/26 04:30:47;;;;;;;5.75;4.50;;;;;;;29.20;73.27;100734.95;1792374;78;21069;-69
2022/06/26 04:33:14;;;;;;;7.08;5.05;;;;;;;29.53;73.48;100731.86;1784736;79;21067;-69
2022/06/26 04:35:42;;;;;;;5.40;4.87;;;;;;;29.36;72.13;100728.11;1795172;78;21051;-69
2022/06/26 04:38:09;;;;;;;7.42;4.62;;;;;;;29.25;72.52;100736.52;1788828;79;21086;-69
2022/06/26 04:40:36;;;;;;;6.08;4.50;;;;;;;28.95;73.82;100732.55;1780047;79;21559;-69
2022/06/26 04:43:04;;;;;;;6.87;4.55;;;;;;;28.97;73.29;100735.00;1763139;80;21123;-69
2022/06/26 04:45:32;;;;;;;5.45;4.42;;;;;;;28.50;73.63;100741.44;1777599;80;21072;-69
2022/06/26 04:48:00;;;;;;;5.35;4.58;;;;;;;28.24;76.06;100748.41;1776203;80;21066;-69
2022/06/26 04:50:27;;;;;;;6.17;4.50;;;;;;;28.09;77.88;100746.54;1747301;80;21482;-69
2022/06/26 04:52:55;;;;;;;6.47;4.20;;;;;;;28.14;79.02;100742.88;1762854;80;21052;-69
2022/06/26 04:55:24;;;;;;;7.65;4.20;;;;;;;28.21;77.11;100748.28;1769218;80;21503;-69
2022/06/26 04:57:52;;;;;;;7.17;4.67;;;;;;;28.39;77.87;100747.97;1781304;80;21070;-69
2022/06/26 05:00:19;;;;;;;6.97;4.40;;;;;;;30.22;78.19;100737.17;1753100;81;21506;-69
2022/06/26 05:02:48;;;;;;;8.98;4.25;;;;;;;28.24;75.92;100741.80;1757994;80;21089;-69
2022/06/26 05:05:18;;;;;;;7.15;4.35;;;;;;;28.10;77.09;100742.91;1763568;80;21001;-69
2022/06/26 05:07:59;;;;;;;6.03;4.28;;;;;;;28.36;77.09;100749.13;1757496;80;21064;-69
2022/06/26 05:10:27;;;;;;;9.65;4.75;;;;;;;28.87;78.00;100746.38;1743259;80;21000;-69
2022/06/26 05:12:55;;;;;;;6.58;4.50;;;;;;;28.74;75.43;100748.33;1755394;80;21043;-68
2022/06/26 05:15:36;;;;;;;7.50;5.15;;;;;;;29.05;75.46;100740.20;1763106;80;21059;-69
2022/06/26 05:18:04;;;;;;;6.17;4.20;;;;;;;29.18;75.48;100745.39;1747615;80;21063;-69
2022/06/26 05:20:31;;;;;;;6.35;4.30;;;;;;;29.48;74.09;100743.52;1755494;81;21023;-69
2022/06/26 05:22:59;;;;;;;5.65;4.12;;;;;;;29.42;74.21;100748.25;1758230;80;21031;-69
2022/06/26 05:25:27;;;;;;;5.22;4.20;;;;;;;29.34;73.67;100750.02;1759894;80;21958;-69
2022/06/26 05:27:56;;;;;;;7.55;4.17;;;;;;;29.23;75.70;100748.33;1745187;81;21054;-69
2022/06/26 05:30:23;;;;;;;7.67;4.45;;;;;;;29.23;75.70;100748.33;1780115;80;21048;-69
2022/06/26 05:32:50;;;;;;;7.62;4.40;;;;;;;29.48;75.70;100754.13;1759805;80;21043;-69
2022/06/26 05:35:19;;;;;;;6.08;4.10;;;;;;;29.31;75.75;100756.18;1767552;79;21058;-69
2022/06/26 05:37:47;;;;;;;7.53;4.35;;;;;;;29.21;74.50;100753.80;1764911;81;21506;-69
2022/06/26 05:40:14;;;;;;;5.53;4.10;;;;;;;;;;1770291;79;21032;-69
2022/06/26 05:42:42;;;;;;;7.28;4.10;;;;;;;29.29;73.70;100754.22;1756221;80;21078;-70
2022/06/26 05:53:56;;;;;;;7.20;4.47;;;;;;;29.70;75.45;100752.34;1777060;80;21015;-69
2022/06/26 05:56:35;;;;;;;9.90;4.65;;;;;;;29.92;74.42;100752.71;1755789;80;21008;-69
2022/06/26 05:59:21;;;;;;;7.50;4.87;;;;;;;29.87;74.16;100758.30;1771914;80;21029;-69
2022/06/26 06:02:07;;;;;;;8.73;4.80;;;;;;;29.41;75.10;100755.39;1763435;80;21032;-69
2022/06/26 06:04:35;;;;;;;7.87;4.47;;;;;;;29.72;75.78;100752.50;1758036;80;21043;-69
2022/06/26 06:07:05;;;;;;;7.70;4.50;;;;;;;29.72;75.78;100752.50;1771665;80;21108;-68
2022/06/26 06:09:33;;;;;;;6.80;4.25;;;;;;;30.88;73.29;100756.32;1769403;79;21067;-69
2022/06/26 06:12:00;;;;;;;9.28;4.20;;;;;;;29.49;74.94;100754.47;1759324;80;21095;-68
2022/06/26 06:14:29;;;;;;;5.37;4.87;;;;;;;29.49;76.03;100749.16;1761393;80;21027;-69
2022/06/26 06:16:56;;;;;;;8.78;4.53;;;;;;;29.32;75.10;100755.16;1764509;80;21065;-69
2022/06/26 06:19:23;;;;;;;5.50;4.62;;;;;;;29.74;75.28;100751.80;1768921;80;21520;-69
2022/06/26 06:21:51;;;;;;;8.03;4.78;;;;;;;29.81;74.63;100753.23;1763533;80;21028;-68
2022/06/26 06:24:18;;;;;;;5.42;4.60;;;;;;;30.11;74.62;100753.09;1758892;80;21082;-69
2022/06/26 06:26:45;;;;;;;6.70;4.50;;;;;;;29.95;72.73;100750.20;1758709;80;21090;-68
2022/06/26 06:29:20;;;;;;;9.45;4.55;;;;;;;29.87;72.74;100754.31;1768186;80;21012;-68
2022/06/26 06:31:47;;;;;;;8.53;4.67;;;;;;;29.80;72.85;100759.53;1748212;81;21078;-69
2022/06/26 06:34:15;;;;;;;7.28;4.85;;;;;;;30.11;72.60;100761.90;1752161;80;21047;-69
2022/06/26 06:36:43;;;;;;;7.62;4.55;;;;;;;30.00;72.36;100769.03;1746084;80;21012;-69
2022/06/26 06:39:10;;;;;;;5.95;4.22;;;;;;;30.28;71.17;100776.23;1736021;81;21007;-69
2022/06/26 06:41:40;;;;;;;4.72;4.25;;;;;;;30.41;69.47;100771.57;1749916;81;21012;-69
2022/06/26 06:44:09;;;;;;;6.35;4.03;;;;;;;30.13;69.43;100777.13;1742964;81;21114;-68
2022/06/26 06:46:54;;;;;;;7.67;4.20;;;;;;;29.92;70.73;100786.40;1729637;81;21062;-69
2022/06/26 06:49:23;;;;;;;6.75;4.28;;;;;;;30.35;70.19;100780.63;1736968;82;21031;-70
2022/06/26 06:51:51;;;;;;;5.17;4.20;;;;;;;30.55;69.21;100774.13;1724382;82;21111;-69
2022/06/26 06:54:19;;;;;;;7.75;4.35;;;;;;;30.59;67.96;100775.09;1732181;81;21028;-69
2022/06/26 06:56:47;;;;;;;5.47;4.08;;;;;;;30.63;68.34;100771.03;1732265;81;21062;-68
2022/06/26 06:59:15;;;;;;;4.70;4.20;;;;;;;30.72;66.90;100775.20;1732657;82;21020;-70
2022/06/26 07:01:43;;;;;;;6.95;4.60;;;;;;;30.92;66.07;100770.86;1682541;85;21638;-69
2022/06/26 07:04:12;;;;;;;8.33;4.20;;;;;;;31.07;67.29;100765.93;1686756;83;21044;-69
2022/06/26 07:06:39;;;;;;;7.53;4.00;;;;;;;30.64;66.54;100770.03;1664433;83;20989;-70
2022/06/26 07:09:08;;;;;;;5.42;4.00;;;;;;;30.80;66.05;100764.91;1684344;83;21076;-69
2022/06/26 07:11:35;;;;;;;7.75;3.80;;;;;;;31.31;64.77;100765.43;1694658;83;21066;-69
2022/06/26 07:14:03;;;;;;;6.85;4.17;;;;;;;31.34;64.20;100770.34;1685902;83;21072;-69
2022/06/26 07:16:31;;;;;;;5.70;3.90;;;;;;;31.89;63.33;100764.20;1679185;84;21041;-69
2022/06/26 07:18:59;;;;;;;4.20;3.80;;;;;;;31.60;62.84;100774.68;1737184;82;21031;-69
2022/06/26 07:21:28;;;;;;;6.90;4.00;;;;;;;31.35;63.79;100769.86;1728939;81;20996;-69
2022/06/26 07:23:55;;;;;;;4.85;3.55;;;;;;;33.58;62.62;100760.61;1743362;82;21483;-70
2022/06/26 07:26:23;;;;;;;6.00;3.92;;;;;;;32.43;59.29;100759.77;1731730;82;21023;-69
2022/06/26 07:28:53;;;;;;;5.92;3.52;;;;;;;32.59;59.99;100773.23;1729751;82;21554;-69
2022/06/26 07:31:20;;;;;;;5.17;3.65;;;;;;;32.77;60.14;100761.41;1727257;82;21096;-69
2022/06/26 07:36:35;;;;;;;4.70;3.67;;;;;;;32.19;61.42;100763.87;1747353;81;21052;-69
2022/06/26 07:39:02;;;;;;;6.72;3.52;;;;;;;32.01;60.09;100764.46;1750373;82;20968;-69
2022/06/26 07:41:30;;;;;;;4.25;3.55;;;;;;;31.88;60.00;100773.22;1753658;82;21004;-68
2022/06/26 07:43:59;;;;;;;4.00;3.60;;;;;;;32.27;61.27;100769.00;1747916;82;21096;-69
2022/06/26 07:46:26;;;;;;;4.40;3.62;;;;;;;32.70;60.78;100756.06;1753302;80;21516;-69
2022/06/26 07:48:54;;;;;;;4.00;3.62;;;;;;;32.31;60.47;100759.56;1749532;82;21008;-69
2022/06/26 07:51:21;;;;;;;8.15;3.70;;;;;;;32.18;61.48;100757.73;1720363;81;21012;-69
2022/06/26 07:53:48;;;;;;;5.53;3.70;;;;;;;32.10;60.13;100755.27;1739007;82;21039;-68
2022/06/26 07:56:16;;;;;;;5.55;3.60;;;;;;;32.13;59.51;100752.99;1729937;82;21059;-69
2022/06/26 07:58:43;;;;;;;6.65;3.37;;;;;;;32.18;60.03;100756.89;1738663;82;20995;-70
2022/06/26 08:01:10;;;;;;;3.85;3.40;;;;;;;32.28;59.36;100755.48;1722952;81;21531;-69
2022/06/26 08:03:38;;;;;;;5.97;3.20;;;;;;;32.47;57.64;100753.82;1729634;82;21505;-69
2022/06/26 08:06:06;;;;;;;4.08;3.47;;;;;;;32.32;59.41;100751.87;1742360;81;21000;-69
2022/06/26 08:08:33;;;;;;;7.97;3.62;;;;;;;32.18;59.71;100755.06;1732720;81;21023;-69
2022/06/26 08:11:02;;;;;;;3.83;3.40;;;;;;;32.61;59.27;100751.19;1743998;82;21016;-70
2022/06/26 08:13:29;;;;;;;6.53;3.58;;;;;;;32.11;59.00;100758.22;1729547;82;21108;-70
2022/06/26 08:15:57;;;;;;;7.10;3.40;;;;;;;32.73;59.01;100755.67;1738180;82;21463;-69
2022/06/26 08:18:24;;;;;;;9.68;3.60;;;;;;;32.57;58.92;100759.29;1720146;82;21023;-69
2022/06/26 08:20:52;;;;;;;5.78;3.45;;;;;;;32.78;57.93;100753.70;1732713;81;21015;-69
2022/06/26 08:23:19;;;;;;;6.47;3.30;;;;;;;33.41;57.14;100754.44;1727499;81;21070;-69
2022/06/26 08:25:46;;;;;;;6.58;3.60;;;;;;;33.08;57.35;100759.89;1732758;82;21387;-69
2022/06/26 08:28:14;;;;;;;6.00;3.40;;;;;;;33.35;56.52;100757.95;1738568;82;21511;-70
2022/06/26 08:30:42;;;;;;;4.47;3.15;;;;;;;33.20;57.06;100766.23;1724057;82;21028;-70
2022/06/26 08:33:10;;;;;;;4.00;3.47;;;;;;;32.74;56.43;100765.80;1728659;82;21001;-70
2022/06/26 08:35:37;;;;;;;4.47;3.30;;;;;;;32.52;57.25;100767.85;1723155;81;21031;-69
2022/06/26 08:38:04;;;;;;;3.80;3.10;;;;;;;32.30;57.72;100767.23;1725937;82;21473;-70
2022/06/26 08:40:32;;;;;;;4.45;3.30;;;;;;;32.72;57.17;100757.20;1714356;82;21060;-69
2022/06/26 08:43:02;;;;;;;3.30;3.00;;;;;;;33.23;55.74;100764.47;1721987;82;21133;-69
2022/06/26 08:45:31;;;;;;;4.03;3.22;;;;;;;32.72;56.09;100755.34;1720689;82;21076;-69
2022/06/26 08:48:00;;;;;;;3.90;3.27;;;;;;;32.72;56.39;100746.53;1732736;82;21073;-70
2022/06/26 08:50:29;;;;;;;5.97;3.37;;;;;;;32.48;56.37;100749.30;1740868;82;21051;-69
2022/06/26 08:52:59;;;;;;;4.35;3.27;;;;;;;32.56;56.24;100754.97;1744911;82;21016;-70
2022/06/26 08:55:28;;;;;;;6.70;3.35;;;;;;;32.73;55.90;100750.86;1726150;82;21495;-70
2022/06/26 08:57:55;;;;;;;5.97;3.30;;;;;;;33.09;55.50;100753.54;1737587;82;21024;-69
2022/06/26 09:00:23;;;;;;;3.98;3.05;;;;;;;33.41;54.63;100753.10;1739419;82;21016;-70
2022/06/26 09:02:50;;;;;;;6.03;3.10;;;;;;;33.27;54.80;100749.70;1722409;82;21024;-70
2022/06/26 09:05:18;;;;;;;5.30;3.20;;;;;;;33.06;55.25;100757.95;1707711;82;21035;-69
2022/06/26 09:07:51;;;;;;;3.83;3.40;;;;;;;33.46;55.00;100751.16;1746593;81;21053;-69
2022/06/26 09:10:20;;;;;;;3.35;2.95;;;;;;;32.92;54.50;100745.97;1739542;81;21459;-70
2022/06/26 09:12:54;;;;;;;3.25;2.85;;;;;;;33.07;55.78;100738.23;1727141;82;21525;-69
2022/06/26 09:15:23;;;;;;;9.28;3.20;;;;;;;33.69;56.45;100743.97;1734902;81;21042;-70
2022/06/26 09:18:03;;;;;;;4.20;3.22;;;;;;;33.03;54.68;100747.69;1731145;81;21059;-70
2022/06/26 09:20:34;;;;;;;7.05;3.35;;;;;;;32.80;55.39;100748.17;1731346;82;21045;-69
2022/06/26 09:23:03;;;;;;;5.30;3.40;;;;;;;33.08;54.52;100742.06;1745096;82;21571;-69
2022/06/26 09:25:39;;;;;;;4.53;3.30;;;;;;;32.78;54.75;100736.89;1744201;82;20972;-69
2022/06/26 09:28:18;;;;;;;6.58;3.08;;;;;;;33.22;55.50;100723.34;1738307;82;21016;-69
2022/06/26 09:30:56;;;;;;;3.70;3.05;;;;;;;33.25;54.87;100730.91;1742313;82;21523;-69
2022/06/26 09:33:30;;;;;;;6.78;3.20;;;;;;;33.20;53.71;100723.55;1746181;82;21039;-69
2022/06/26 09:35:59;;;;;;;6.20;3.10;;;;;;;33.40;53.50;100725.32;1726364;82;20992;-69
2022/06/26 09:38:31;;;;;;;4.15;3.05;;;;;;;33.04;53.76;100726.67;1733991;81;21035;-69
2022/06/26 09:41:03;;;;;;;4.15;3.33;;;;;;;33.64;54.71;100737.94;1747694;82;20999;-69
2022/06/26 09:43:39;;;;;;;;;;;;;;;33.81;54.23;100718.20;1751189;82;21031;-69
2022/06/26 09:46:10;;;;;;;5.05;3.52;;;;;;;33.48;53.72;100711.20;1729881;81;20099;-70
2022/06/26 09:48:38;;;;;;;4.37;3.60;;;;;;;33.36;54.41;100722.77;1730456;82;21011;-68
2022/06/26 09:51:10;;;;;;;3.70;3.33;;;;;;;33.83;54.32;100716.14;1713073;82;21079;-69
2022/06/26 09:53:39;;;;;;;5.30;3.45;;;;;;;33.60;54.12;100717.17;1708092;83;21034;-68
2022/06/26 09:56:09;;;;;;;6.10;3.17;;;;;;;33.80;53.11;100715.25;1699351;83;21123;-69
2022/06/26 09:58:36;;;;;;;3.62;3.17;;;;;;;33.55;52.74;100723.69;1710855;83;21036;-69
2022/06/26 10:06:36;;;;;;;5.75;3.25;;;;;;;33.54;53.40;100704.20;1715509;84;21042;-66
2022/06/26 10:09:07;;;;;;;5.75;3.20;;;;;;;34.05;50.76;100708.58;1706377;83;21048;-66
2022/06/26 10:11:38;;;;;;;3.45;3.15;;;;;;;34.58;51.75;100709.16;1699410;82;21182;-67
2022/06/26 10:14:14;;;;;;;5.65;3.20;;;;;;;34.21;50.01;100714.45;1688341;83;21028;-66
2022/06/26 10:16:58;;;;;;;4.03;3.17;;;;;;;33.93;51.17;100721.00;1682438;84;21595;-67
2022/06/26 10:19:57;;;;;;;3.62;3.30;;;;;;;33.69;51.42;100711.92;1691212;83;21039;-69
2022/06/26 10:22:25;;;;;;;6.67;2.90;;;;;;;34.26;52.36;100703.38;1688624;83;21068;-69
2022/06/26 10:24:57;;;;;;;5.00;3.10;;;;;;;33.80;50.77;100696.56;1698737;83;21046;-69
2022/06/26 10:27:34;;;;;;;3.40;3.10;;;;;;;34.00;51.03;100691.56;1693432;83;21142;-68
2022/06/26 10:30:20;;;;;;;6.97;3.05;;;;;;;34.27;49.96;100697.02;1687421;83;21523;-69
2022/06/26 10:33:09;;;;;;;6.17;2.98;;;;;;;34.35;49.80;100701.27;1688500;83;21651;-69
2022/06/26 10:35:49;;;;;;;3.15;2.52;;;;;;;34.38;49.40;100690.64;1698169;83;21387;-68
2022/06/26 10:38:26;;;;;;;5.28;3.08;;;;;;;34.98;48.70;100688.66;1701470;83;21067;-69
2022/06/26 10:44:11;;;;;;;5.22;3.05;;;;;;;34.55;48.89;100696.22;1686146;84;21048;-69
2022/06/26 10:46:43;;;;;;;4.40;2.85;;;;;;;34.13;48.59;100696.81;1688070;83;21110;-68
2022/06/26 10:49:11;;;;;;;4.97;2.95;;;;;;;34.68;49.34;100698.80;1744888;81;21027;-69
2022/06/26 10:51:42;;;;;;;4.42;3.15;;;;;;;34.90;48.76;100703.98;1745728;81;21001;-67
2022/06/26 10:54:23;;;;;;;4.67;2.90;;;;;;;35.05;48.20;100701.44;1741721;82;21031;-67
2022/06/26 10:57:15;;;;;;;6.47;2.92;;;;;;;35.16;47.62;100694.53;1741608;82;21550;-67
2022/06/26 10:59:44;;;;;;;5.25;2.65;;;;;;;35.33;46.63;100698.22;1750420;82;21503;-67
2022/06/26 11:02:13;;;;;;;6.55;2.90;;;;;;;34.95;46.42;100693.13;1744895;82;21015;-67
2022/06/26 11:04:48;;;;;;;3.33;2.90;;;;;;;35.00;46.83;100695.94;1753824;82;21526;-67
2022/06/26 11:07:17;;;;;;;3.87;3.30;;;;;;;34.84;47.73;100700.06;1748222;82;21031;-67
2022/06/26 11:09:45;;;;;;;6.42;2.75;;;;;;;35.15;47.39;100691.05;1747377;82;21460;-67
2022/06/26 11:12:13;;;;;;;3.17;2.75;;;;;;;34.85;45.90;100693.12;1743339;82;21055;-67
2022/06/26 11:14:41;;;;;;;7.37;2.65;;;;;;;35.35;45.41;100687.30;1746066;82;20998;-67
2022/06/26 11:17:12;;;;;;;4.17;2.80;;;;;;;34.65;45.55;100700.06;1744103;82;21012;-69
2022/06/26 11:22:28;;;;;;;4.50;2.50;;;;;;;34.23;46.40;100697.16;1747941;82;21046;-67
2022/06/26 11:24:57;;;;;;;9.50;3.20;;;;;;;34.40;46.70;100697.92;1741423;82;21028;-67
2022/06/26 11:27:27;;;;;;;6.00;2.90;;;;;;;34.48;46.82;100695.77;1744180;82;21019;-67
2022/06/26 11:29:54;;;;;;;5.55;3.20;;;;;;;34.82;46.66;100686.91;1745247;82;21036;-67
2022/06/26 11:32:23;;;;;;;5.08;2.90;;;;;;;35.61;45.58;100698.14;1748436;82;21556;-66
2022/06/26 11:34:52;;;;;;;7.17;3.70;;;;;;;35.00;47.01;100687.91;1753813;82;21510;-67
2022/06/26 11:37:36;;;;;;;7.90;4.83;;;;;;;35.46;47.24;100698.05;1750541;82;21031;-67
2022/06/26 11:40:18;;;;;;;6.35;3.92;;;;;;;35.31;46.81;100699.78;1748445;82;21071;-67
2022/06/26 11:42:46;;;;;;;8.43;3.50;;;;;;;35.32;45.82;100700.59;1748264;82;21020;-67
2022/06/26 11:45:26;;;;;;;8.15;3.10;;;;;;;35.66;46.59;100685.70;1743874;81;21401;-67
2022/06/26 11:47:54;;;;;;;6.20;3.25;;;;;;;35.97;46.47;100689.16;1748459;81;21474;-67
2022/06/26 11:50:24;;;;;;;8.15;3.40;;;;;;;35.38;46.38;100693.52;1745839;82;21508;-67
2022/06/26 11:52:58;;;;;;;4.62;3.10;;;;;;;35.72;45.20;100691.20;1746955;82;21230;-67
2022/06/26 11:55:26;;;;;;;7.70;3.50;;;;;;;35.57;47.17;100692.42;1743959;81;21052;-67
2022/06/26 11:57:57;;;;;;;6.22;3.85;;;;;;;36.42;45.88;100687.25;1744148;81;21504;-67
2022/06/26 12:00:24;;;;;;;9.43;3.62;;;;;;;35.63;45.61;100682.14;1745015;82;21079;-67
2022/06/26 12:02:52;;;;;;;7.90;3.80;;;;;;;35.31;46.92;100701.65;1740908;82;21021;-67
2022/06/26 12:05:23;;;;;;;8.43;3.77;;;;;;;34.27;48.88;100689.53;1749363;81;21003;-67
2022/06/26 12:07:53;;;;;;;9.55;3.75;;;;;;;34.43;49.30;100694.80;1752771;81;21498;-68
2022/06/26 12:10:37;;;;;;;7.53;3.92;;;;;;;34.35;48.69;100697.75;1743709;82;21031;-68
2022/06/26 12:13:05;;;;;;;7.08;3.95;;;;;;;34.41;48.58;100696.38;1744669;82;21036;-68
2022/06/26 12:15:36;;;;;;;9.85;4.47;;;;;;;34.34;48.67;100688.92;1745079;82;21024;-68
2022/06/26 12:18:07;;;;;;;8.05;4.72;;;;;;;34.45;49.01;100686.88;1745040;82;21023;-68
2022/06/26 12:20:40;;;;;;;6.92;4.08;;;;;;;35.23;48.02;100690.73;1750475;82;21515;-68